AirNav   Duncan Aviation - Near you to keep you flying
 
 1169 users online  

OK56 PTNO Airport
Hennessey, Oklahoma, USA

GOING TO HENNESSEY?


FAA INFORMATION EFFECTIVE 03 NOVEMBER 2022

Location

FAA Identifier: OK56
Lat/Long: 36-04-05.1700N 097-50-58.9700W
36-04.086167N 097-50.982833W
36.0681028,-97.8497139
(estimated)
Elevation: 1173 ft. / 358 m (estimated)
From city: 4 miles SSE of HENNESSEY, OK
Time zone: UTC -6 (UTC -5 during Daylight Saving Time)
Zip code: 73742

Airport Operations

Airport use: Private use. Permission required prior to landing
Activation date: 04/2017
Control tower: no
ARTCC: KANSAS CITY CENTER
FSS: MC ALESTER FLIGHT SERVICE STATION
Attendance: UNATNDD
Segmented circle: no

Airport Communications

WX AWOS-3PT at WDG (19 nm N): 123.725 (580-237-1475)

Nearby radio navigation aids

VOR radial/distance  VOR name  Freq  Var
ENDr164/16.9VANCE VORTAC115.4005E
ODGr181/18.6WOODRING VOR/DME109.0008E
PWAr335/33.6WILEY POST VOR/DME113.4008E
SWOr249/38.4STILLWATER VOR/DME108.4007E

 
NDB name  Hdg/Dist  Freq  Var  ID
GARFY188/12.734105EEI . ..

Airport Services

Runway Information

Runway 9/27

Dimensions: 1100 x 50 ft. / 335 x 15 m
Surface: turf
RUNWAY 9  RUNWAY 27
Traffic pattern: leftleft

Airport Ownership and Management from official FAA records

Ownership: Privately-owned
Owner: STEVE AND CHERYL GILLILAND
PO BOX 305
HENNESSEY, OK 73742
Phone 405-538-7198
Manager: CHERYL GILLILAND
PO BOX 305
HENNESSEY, OK 73742
Phone 405-538-7198

Additional Remarks

WINDMILLS AROUND ARPT
FOR CD CTC VANCE APCH AT580-213-6765. WHEN VANCE APCH IS CLSD, CTC KANSAS CITY ARTCC AT 913-254-8508.

Instrument Procedures

There are no published instrument procedures at OK56.

Some nearby airports with instrument procedures:

KEND - Vance Air Force Base (17 nm N)
KWDG - Enid Woodring Regional Airport (19 nm N)
KGOK - Guthrie/Edmond Regional Airport (25 nm SE)
KHSD - Sundance Airport (29 nm S)
KJWG - Watonga Regional Airport (30 nm SW)
 
Loc | Ops | Rwys | IFR | FBO | Links
Com | Nav | Svcs | Stats | Notes
Aerial photo
No photo
 
Airport distance calculator
Flying to PTNO Airport? Find the distance to fly.

From to OK56

Sunrise and sunset
Times for 29-Nov-2022
 Local
(UTC-6)
 Zulu
(UTC)
Morning civil twilight06:5512:55
Sunrise07:2313:23
Sunset17:1723:17
Evening civil twilight17:4523:45

Current date and time
Zulu (UTC)  29-Nov-2022 23:50:31
Local (UTC-6)  29-Nov-2022 17:50:31
 
METAR
KEND 
15nm N 
292310Z AUTO 34021G24KT 10SM FEW025 BKN039 02/M05 A2992 RMK AO2 PRESRR SLP138 $
KWDG 
18nm N 
292245Z 35021G27KT 10SM BKN025 OVC035 03/M02 A2992
KGOK 
25nm SE 
292253Z AUTO 35011G21KT 10SM OVC026 04/M02 A2992 RMK AO2 PRESRR SLP133 T00391017
KHSD 
29nm S 
292315Z AUTO 34018G25KT 10SM 04/M01 A2994 RMK A01
KJWG 
30nm SW 
292315Z AUTO 35018G26KT 10SM OVC028 02/M03 A2997 RMK AO2 T00231029
TAF
KEND 
15nm N 
292004Z 2920/3024 30015G25KT 9999 BKN025 QNH2975INS BECMG 2923/2924 34020G30KT 9999 SCT015 QNH2985INS BECMG 3006/3007 34012KT 9999 FEW250 QNH3015INS TX06/2920Z TN05/3012Z
NOTAMs
Click for the latest NOTAMs
NOTAMs are issued by the DoD/FAA and will open in a separate window not controlled by AirNav.

 

 
 

Would you like to see your business listed on this page?

 If your business provides an interesting product or service to pilots, flight crews, aircraft, or users of the PTNO Airport, you should consider listing it here.  To start the listing process, click on the button below
 
Add a business
 

Other Pages about PTNO Airport

Update a link
 
Copyright © AirNav, LLC. All rights reserved. Privacy Policy  Contact